createdAt,value
2023-05-20T00:00:09.533Z,1.98
2023-05-20T00:02:38.877Z,2.75
2023-05-20T00:05:07.730Z,2.78
2023-05-20T00:07:35.661Z,2.20
2023-05-20T00:10:03.511Z,1.92
2023-05-20T00:12:31.316Z,1.70
2023-05-20T00:14:59.209Z,1.90
2023-05-20T00:17:28.344Z,1.70
2023-05-20T00:19:57.675Z,2.33
2023-05-20T00:22:25.478Z,2.20
2023-05-20T00:24:53.244Z,2.03
2023-05-20T00:27:21.166Z,1.83
2023-05-20T00:29:49.042Z,1.83
2023-05-20T00:32:16.924Z,2.03
2023-05-20T00:34:45.118Z,1.90
2023-05-20T00:37:14.211Z,1.83
2023-05-20T00:39:42.068Z,2.30
2023-05-20T00:42:09.925Z,2.03
2023-05-20T00:44:37.698Z,1.92
2023-05-20T00:47:05.890Z,2.00
2023-05-20T00:49:33.782Z,2.55
2023-05-20T00:52:01.888Z,2.20
2023-05-20T00:54:31.160Z,2.05
2023-05-20T00:56:59.735Z,2.40
2023-05-20T00:59:27.934Z,1.58
2023-05-20T01:01:56.745Z,1.92
2023-05-20T01:04:25.170Z,2.17
2023-05-20T01:06:53.310Z,1.80
2023-05-20T01:09:21.135Z,2.20
2023-05-20T01:11:57.658Z,1.90
2023-05-20T01:14:28.464Z,2.10
2023-05-20T01:16:58.384Z,2.08
2023-05-20T01:19:39.396Z,1.85
2023-05-20T01:22:12.368Z,2.25
2023-05-20T01:24:43.030Z,2.45
2023-05-20T01:27:11.607Z,1.80
2023-05-20T01:29:40.158Z,2.00
2023-05-20T01:32:12.032Z,2.70
2023-05-20T01:34:41.980Z,2.13
2023-05-20T01:37:11.343Z,1.75
2023-05-20T01:39:42.758Z,2.20
2023-05-20T01:42:12.200Z,2.33
2023-05-20T01:44:40.347Z,2.25
2023-05-20T01:47:08.241Z,2.20
2023-05-20T01:49:36.060Z,2.30
2023-05-20T01:52:05.689Z,3.13
2023-05-20T01:54:33.526Z,1.77
2023-05-20T01:57:02.994Z,1.73
2023-05-20T01:59:30.879Z,2.38
2023-05-20T02:01:58.657Z,2.95
2023-05-20T02:04:26.602Z,2.30
2023-05-20T02:06:54.362Z,2.13
2023-05-20T02:09:22.186Z,2.25
2023-05-20T02:11:50.052Z,2.28
2023-05-20T02:14:19.161Z,2.45
2023-05-20T02:16:47.570Z,2.00
2023-05-20T02:19:19.924Z,1.98
2023-05-20T02:21:48.934Z,2.53
2023-05-20T02:24:16.954Z,2.25
2023-05-20T02:26:47.040Z,2.53
2023-05-20T02:29:14.946Z,2.33
2023-05-20T02:31:44.066Z,2.50
2023-05-20T02:34:11.949Z,1.77
2023-05-20T02:36:39.777Z,2.28
2023-05-20T02:39:07.605Z,2.25
2023-05-20T02:41:36.257Z,2.40
2023-05-20T02:44:04.013Z,2.75
2023-05-20T02:46:32.431Z,2.40
2023-05-20T02:49:01.681Z,2.75
2023-05-20T02:51:31.874Z,2.35
2023-05-20T02:53:59.714Z,2.67
2023-05-20T02:56:28.605Z,2.40
2023-05-20T02:58:56.370Z,2.63
2023-05-20T03:01:24.331Z,2.15
2023-05-20T03:03:52.485Z,2.30
2023-05-20T03:06:21.706Z,2.30
2023-05-20T03:08:49.507Z,2.72
2023-05-20T03:11:17.390Z,2.42
2023-05-20T03:13:45.262Z,2.15
2023-05-20T03:16:13.432Z,2.55
2023-05-20T03:18:41.920Z,2.88
2023-05-20T03:21:09.867Z,2.63
2023-05-20T03:23:38.986Z,2.45
2023-05-20T03:26:06.880Z,2.70
2023-05-20T03:28:34.676Z,2.35
2023-05-20T03:31:02.661Z,2.70
2023-05-20T03:33:31.485Z,2.78
2023-05-20T03:35:59.316Z,2.75
2023-05-20T03:38:27.183Z,2.40
2023-05-20T03:40:56.332Z,2.35
2023-05-20T03:43:25.239Z,2.33
2023-05-20T03:45:53.093Z,2.42
2023-05-20T03:48:21.225Z,2.58
2023-05-20T03:50:49.053Z,2.88
2023-05-20T03:53:17.319Z,2.85
2023-05-20T03:55:45.135Z,2.13
2023-05-20T03:58:15.264Z,2.53
2023-05-20T04:00:43.545Z,2.67
2023-05-20T04:03:11.495Z,2.67
2023-05-20T04:05:39.350Z,2.80
2023-05-20T04:08:07.150Z,2.88
2023-05-20T04:10:35.015Z,2.80
2023-05-20T04:13:02.833Z,2.10
2023-05-20T04:15:32.192Z,2.90
2023-05-20T04:18:01.466Z,2.63
2023-05-20T04:20:29.432Z,2.88
2023-05-20T04:22:57.177Z,2.78
2023-05-20T04:25:26.078Z,2.63
2023-05-20T04:27:54.061Z,2.90
2023-05-20T04:30:22.658Z,2.70
2023-05-20T04:32:52.415Z,2.80
2023-05-20T04:35:20.484Z,2.45
2023-05-20T04:37:48.755Z,2.90
2023-05-20T04:40:17.063Z,2.55
2023-05-20T04:42:45.395Z,3.08
2023-05-20T04:45:13.557Z,2.63
2023-05-20T04:47:41.831Z,3.33
2023-05-20T04:50:12.058Z,2.88
2023-05-20T04:52:41.791Z,3.13
2023-05-20T04:55:10.847Z,2.90
2023-05-20T04:57:41.536Z,2.95
2023-05-20T05:00:10.596Z,3.10
2023-05-20T05:02:38.689Z,3.97
2023-05-20T05:05:07.535Z,3.28
2023-05-20T05:07:36.932Z,2.90
2023-05-20T05:10:04.990Z,3.42
2023-05-20T05:12:32.885Z,3.08
2023-05-20T05:15:00.902Z,3.90
2023-05-20T05:17:29.450Z,3.10
2023-05-20T05:19:57.294Z,3.10
2023-05-20T05:22:25.150Z,3.60
2023-05-20T05:24:55.663Z,3.05
2023-05-20T05:27:23.910Z,3.10
2023-05-20T05:29:51.673Z,5.45
2023-05-20T05:32:19.477Z,3.50
2023-05-20T05:34:47.579Z,3.00
2023-05-20T05:37:15.375Z,3.08
2023-05-20T05:39:43.301Z,3.30
2023-05-20T05:42:12.399Z,2.70
2023-05-20T05:44:40.204Z,3.22
2023-05-20T05:47:08.131Z,3.15
2023-05-20T05:49:36.206Z,3.72
2023-05-20T05:52:04.118Z,2.72
2023-05-20T05:54:31.893Z,4.18
2023-05-20T05:56:59.739Z,3.20
2023-05-20T05:59:29.222Z,3.35
2023-05-20T06:01:57.000Z,3.42
2023-05-20T06:04:24.912Z,3.63
2023-05-20T06:06:52.793Z,3.60
2023-05-20T06:09:20.597Z,3.13
2023-05-20T06:11:48.420Z,3.72
2023-05-20T06:14:16.156Z,2.92
2023-05-20T06:16:45.409Z,3.38
2023-05-20T06:19:13.306Z,3.22
2023-05-20T06:21:41.275Z,3.40
2023-05-20T06:24:09.094Z,3.22
2023-05-20T06:26:37.005Z,3.70
2023-05-20T06:29:05.117Z,3.45
2023-05-20T06:31:33.476Z,3.03
2023-05-20T06:34:02.719Z,3.15
2023-05-20T06:36:33.041Z,3.83
2023-05-20T06:39:01.612Z,3.20
2023-05-20T06:41:29.452Z,3.40
2023-05-20T06:43:57.202Z,2.95
2023-05-20T06:46:25.221Z,3.20
2023-05-20T06:48:53.122Z,2.95
2023-05-20T06:51:22.637Z,3.25
2023-05-20T06:53:51.349Z,3.72
2023-05-20T06:56:19.185Z,3.05
2023-05-20T06:58:46.975Z,3.40
2023-05-20T07:01:17.815Z,3.13
2023-05-20T07:03:46.017Z,3.75
2023-05-20T07:06:13.885Z,3.58
2023-05-20T07:08:43.162Z,3.90
2023-05-20T07:11:11.098Z,3.85
2023-05-20T07:13:39.073Z,4.07
2023-05-20T07:16:07.425Z,3.90
2023-05-20T07:18:35.292Z,3.33
2023-05-20T07:21:03.152Z,3.78
2023-05-20T07:23:30.953Z,6.00
2023-05-20T07:26:00.142Z,4.10
2023-05-20T07:28:28.047Z,3.28
2023-05-20T07:30:57.299Z,3.35
2023-05-20T07:33:25.232Z,4.15
2023-05-20T07:35:54.400Z,3.83
2023-05-20T07:38:22.384Z,3.45
2023-05-20T07:40:50.181Z,4.25
2023-05-20T07:43:19.269Z,3.90
2023-05-20T07:45:47.137Z,3.95
2023-05-20T07:48:15.031Z,4.85
2023-05-20T07:50:43.091Z,4.50
2023-05-20T07:53:11.178Z,3.38
2023-05-20T07:55:39.166Z,4.40
2023-05-20T07:58:07.166Z,3.42
2023-05-20T08:00:36.434Z,3.95
2023-05-20T08:03:08.673Z,3.38
2023-05-20T08:05:39.743Z,4.07
2023-05-20T08:08:11.129Z,3.53
2023-05-20T08:10:40.469Z,3.33
2023-05-20T08:13:10.239Z,3.50
2023-05-20T08:15:41.650Z,3.25
2023-05-20T08:18:11.580Z,3.78
2023-05-20T08:20:41.519Z,3.47
2023-05-20T08:23:11.549Z,3.90
2023-05-20T08:25:41.488Z,3.60
2023-05-20T08:28:12.297Z,4.75
2023-05-20T08:30:43.738Z,3.33
2023-05-20T08:33:13.846Z,3.40
2023-05-20T08:35:43.754Z,3.00
2023-05-20T08:38:13.974Z,3.58
2023-05-20T08:40:43.968Z,3.55
2023-05-20T08:43:13.793Z,3.17
2023-05-20T08:45:45.637Z,3.47
2023-05-20T08:48:15.638Z,3.33
2023-05-20T08:50:44.963Z,3.35
2023-05-20T08:53:14.726Z,2.97
2023-05-20T08:55:48.490Z,3.45
2023-05-20T08:58:19.247Z,3.67
2023-05-20T09:00:48.524Z,4.28
2023-05-20T09:03:16.385Z,3.65
2023-05-20T09:05:44.292Z,3.25
2023-05-20T09:08:13.465Z,3.20
2023-05-20T09:10:42.619Z,3.13
2023-05-20T09:13:11.438Z,3.20
2023-05-20T09:15:39.417Z,2.85
2023-05-20T09:18:09.498Z,3.20
2023-05-20T09:20:38.791Z,3.00
2023-05-20T09:23:07.875Z,2.92
2023-05-20T09:25:36.654Z,3.25
2023-05-20T09:28:05.977Z,3.00
2023-05-20T09:30:34.518Z,3.83
2023-05-20T09:33:07.816Z,4.13
2023-05-20T09:35:38.466Z,3.67
2023-05-20T09:38:07.475Z,3.25
2023-05-20T09:40:37.546Z,3.40
2023-05-20T09:43:07.115Z,3.35
2023-05-20T09:45:36.134Z,3.13
2023-05-20T09:48:05.600Z,3.60
2023-05-20T09:50:33.837Z,3.53
2023-05-20T09:53:05.309Z,3.53
2023-05-20T09:55:34.230Z,3.58
2023-05-20T09:58:04.452Z,3.40
2023-05-20T10:00:32.790Z,3.72
2023-05-20T10:03:01.385Z,3.40
2023-05-20T10:05:31.833Z,3.50
2023-05-20T10:08:41.418Z,3.78
2023-05-20T10:11:16.679Z,3.38
2023-05-20T10:14:01.042Z,3.83
2023-05-20T10:16:39.695Z,3.67
2023-05-20T10:19:18.318Z,3.40
2023-05-20T10:21:46.435Z,3.58
2023-05-20T10:24:15.659Z,3.80
2023-05-20T10:26:43.885Z,3.72
2023-05-20T10:29:18.068Z,3.78
2023-05-20T10:31:46.819Z,3.47
2023-05-20T10:34:17.686Z,3.83
2023-05-20T10:36:49.111Z,3.50
2023-05-20T10:39:18.403Z,3.55
2023-05-20T10:41:46.385Z,4.03
2023-05-20T10:44:14.194Z,3.90
2023-05-20T10:47:00.249Z,3.38
2023-05-20T10:49:35.128Z,4.20
2023-05-20T10:52:03.355Z,3.97
2023-05-20T10:54:37.222Z,3.80
2023-05-20T10:57:09.295Z,4.15
2023-05-20T10:59:38.040Z,4.05
2023-05-20T11:02:06.111Z,4.95
2023-05-20T11:04:34.110Z,4.07
2023-05-20T11:07:02.316Z,4.80
2023-05-20T11:09:31.183Z,4.13
2023-05-20T11:12:00.314Z,3.63
2023-05-20T11:14:29.679Z,3.45
2023-05-20T11:16:59.018Z,3.60
2023-05-20T11:19:27.365Z,3.90
2023-05-20T11:21:55.559Z,4.40
2023-05-20T11:24:27.582Z,4.28
2023-05-20T11:26:55.839Z,4.22
2023-05-20T11:29:27.105Z,3.78
2023-05-20T11:31:54.930Z,4.10
2023-05-20T11:34:25.651Z,3.83
2023-05-20T11:36:57.528Z,4.25
2023-05-20T11:39:26.845Z,3.72
2023-05-20T11:41:55.023Z,4.20
2023-05-20T11:44:24.271Z,3.65
2023-05-20T11:46:52.198Z,4.20
2023-05-20T11:49:20.031Z,3.80
2023-05-20T11:51:47.838Z,3.80
2023-05-20T11:54:15.767Z,3.92
2023-05-20T11:56:45.591Z,3.90
2023-05-20T11:59:14.720Z,4.25
2023-05-20T12:01:44.395Z,3.67
2023-05-20T12:04:13.293Z,3.80
2023-05-20T12:06:42.780Z,3.80
2023-05-20T12:09:11.404Z,3.35
2023-05-20T12:11:41.720Z,3.95
2023-05-20T12:14:10.171Z,4.57
2023-05-20T12:16:39.227Z,3.80
2023-05-20T12:19:09.340Z,3.80
2023-05-20T12:21:37.212Z,4.43
2023-05-20T12:24:06.974Z,3.90
2023-05-20T12:26:35.249Z,3.70
2023-05-20T12:29:03.132Z,4.72
2023-05-20T12:31:33.073Z,4.40
2023-05-20T12:34:02.693Z,4.05
2023-05-20T12:36:32.289Z,4.38
2023-05-20T12:39:00.164Z,3.53
2023-05-20T12:41:28.020Z,4.10
2023-05-20T12:43:55.981Z,4.20
2023-05-20T12:46:23.858Z,4.20
2023-05-20T12:48:51.693Z,4.10
2023-05-20T12:51:20.237Z,4.32
2023-05-20T12:53:49.473Z,4.88
2023-05-20T12:56:17.672Z,4.53
2023-05-20T12:58:45.549Z,4.47
2023-05-20T13:01:13.466Z,4.28
2023-05-20T13:03:41.610Z,4.20
2023-05-20T13:06:09.553Z,4.07
2023-05-20T13:08:37.379Z,3.83
2023-05-20T13:11:06.698Z,4.57
2023-05-20T13:13:34.524Z,4.63
2023-05-20T13:16:02.689Z,4.70
2023-05-20T13:18:30.493Z,4.32
2023-05-20T13:20:58.287Z,4.40
2023-05-20T13:23:26.213Z,4.93
2023-05-20T13:25:54.066Z,4.35
2023-05-20T13:28:23.177Z,4.38
2023-05-20T13:30:51.020Z,4.50
2023-05-20T13:33:18.864Z,4.38
2023-05-20T13:35:46.627Z,4.75
2023-05-20T13:38:14.446Z,4.18
2023-05-20T13:40:42.226Z,3.88
2023-05-20T13:43:10.114Z,4.35
2023-05-20T13:45:39.308Z,4.35
2023-05-20T13:48:07.776Z,4.50
2023-05-20T13:50:35.985Z,4.32
2023-05-20T13:53:04.406Z,4.20
2023-05-20T13:55:32.796Z,4.90
2023-05-20T13:58:00.541Z,4.38
2023-05-20T14:00:28.321Z,4.95
2023-05-20T14:02:57.607Z,4.53
2023-05-20T14:05:25.560Z,5.35
2023-05-20T14:07:53.461Z,4.22
2023-05-20T14:10:21.412Z,4.57
2023-05-20T14:12:49.227Z,4.25
2023-05-20T14:15:17.089Z,4.60
2023-05-20T14:17:45.049Z,4.65
2023-05-20T14:20:14.558Z,4.60
2023-05-20T14:22:42.505Z,4.35
2023-05-20T14:25:10.682Z,4.53
2023-05-20T14:27:38.450Z,4.05
2023-05-20T14:30:07.786Z,4.38
2023-05-20T14:32:35.618Z,4.20
2023-05-20T14:35:03.437Z,4.85
2023-05-20T14:37:32.618Z,4.68
2023-05-20T14:40:01.831Z,4.88
2023-05-20T14:42:29.739Z,4.82
2023-05-20T14:44:57.519Z,4.60
2023-05-20T14:47:26.681Z,4.50
2023-05-20T14:49:54.712Z,4.65
2023-05-20T14:52:22.699Z,4.40
2023-05-20T14:54:52.162Z,4.10
2023-05-20T14:57:20.621Z,4.50
2023-05-20T14:59:50.759Z,4.80
2023-05-20T15:02:19.116Z,4.60
2023-05-20T15:04:47.927Z,4.88
2023-05-20T15:07:16.502Z,5.10
2023-05-20T15:09:44.605Z,5.10
2023-05-20T15:12:13.847Z,4.82
2023-05-20T15:14:41.653Z,4.70
2023-05-20T15:17:10.377Z,5.40
2023-05-20T15:19:41.205Z,4.72
2023-05-20T15:22:09.413Z,4.70
2023-05-20T15:24:37.212Z,4.90
2023-05-20T15:27:05.738Z,5.45
2023-05-20T15:29:35.007Z,5.05
2023-05-20T15:32:02.924Z,4.95
2023-05-20T15:34:30.782Z,5.50
2023-05-20T15:36:58.692Z,5.28
2023-05-20T15:39:28.212Z,5.22
2023-05-20T15:41:55.995Z,5.50
2023-05-20T15:44:23.753Z,5.30
2023-05-20T15:46:53.051Z,5.15
2023-05-20T15:49:20.886Z,5.13
2023-05-20T15:51:55.751Z,5.85
2023-05-20T15:54:30.713Z,5.20
2023-05-20T15:56:58.904Z,5.53
2023-05-20T15:59:26.723Z,5.78
2023-05-20T16:01:56.073Z,5.43
2023-05-20T16:04:24.050Z,6.00
2023-05-20T16:06:52.002Z,5.60
2023-05-20T16:09:19.907Z,5.93
2023-05-20T16:11:47.790Z,6.10
2023-05-20T16:14:15.570Z,5.60
2023-05-20T16:16:43.483Z,6.53
2023-05-20T16:19:12.747Z,6.45
2023-05-20T16:21:40.647Z,6.53
2023-05-20T16:24:08.481Z,6.88
2023-05-20T16:26:36.319Z,6.05
2023-05-20T16:29:04.225Z,5.85
2023-05-20T16:31:31.983Z,6.35
2023-05-20T16:33:59.766Z,6.18
2023-05-20T16:36:28.943Z,5.85
2023-05-20T16:38:56.778Z,6.40
2023-05-20T16:41:24.564Z,6.10
2023-05-20T16:43:52.321Z,6.22
2023-05-20T16:46:20.617Z,6.85
2023-05-20T16:48:48.659Z,6.13
2023-05-20T16:51:16.478Z,6.68
2023-05-20T16:53:45.739Z,6.82
2023-05-20T16:56:13.556Z,7.40
2023-05-20T16:58:41.581Z,6.82
2023-05-20T17:01:09.432Z,7.15
2023-05-20T17:03:37.363Z,6.38
2023-05-20T17:06:05.569Z,7.00
2023-05-20T17:08:33.387Z,7.30
2023-05-20T17:11:02.780Z,7.25
2023-05-20T17:13:30.557Z,6.78
2023-05-20T17:15:58.378Z,6.72
2023-05-20T17:18:26.748Z,6.90
2023-05-20T17:20:54.557Z,6.63
2023-05-20T17:23:22.360Z,7.35
2023-05-20T17:25:50.177Z,6.80
2023-05-20T17:28:19.407Z,7.45
2023-05-20T17:30:47.254Z,7.78
2023-05-20T17:33:15.182Z,7.93
2023-05-20T17:35:43.010Z,7.28
2023-05-20T17:38:11.838Z,7.90
2023-05-20T17:40:39.682Z,7.63
2023-05-20T17:43:07.422Z,7.57
2023-05-20T17:45:36.739Z,7.97
2023-05-20T17:48:08.745Z,8.13
2023-05-20T17:50:38.618Z,8.38
2023-05-20T17:53:06.466Z,8.07
2023-05-20T17:55:36.317Z,8.48
2023-05-20T17:58:04.344Z,7.72
2023-05-20T18:00:34.206Z,8.55
2023-05-20T18:03:03.678Z,8.25
2023-05-20T18:05:31.598Z,8.65
2023-05-20T18:07:59.826Z,8.43
2023-05-20T18:10:27.708Z,8.45
2023-05-20T18:12:58.838Z,7.45
2023-05-20T18:15:26.963Z,7.40
2023-05-20T18:17:55.022Z,8.23
2023-05-20T18:20:24.351Z,8.65
2023-05-20T18:22:58.132Z,8.00
2023-05-20T18:25:26.647Z,8.27
2023-05-20T18:27:55.059Z,8.85
2023-05-20T18:30:23.198Z,8.43
2023-05-20T18:32:51.567Z,7.97
2023-05-20T18:35:19.371Z,8.57
2023-05-20T18:37:48.445Z,8.68
2023-05-20T18:40:16.324Z,8.65
2023-05-20T18:42:44.090Z,8.18
2023-05-20T18:45:12.679Z,8.35
2023-05-20T18:47:40.530Z,9.00
2023-05-20T18:50:09.096Z,8.32
2023-05-20T18:52:36.959Z,8.82
2023-05-20T18:55:06.907Z,8.98
2023-05-20T18:57:34.649Z,9.07
2023-05-20T19:00:04.590Z,8.77
2023-05-20T19:02:33.548Z,8.57
2023-05-20T19:05:01.379Z,8.80
2023-05-20T19:07:29.161Z,8.57
2023-05-20T19:09:57.032Z,9.23
2023-05-20T19:12:26.167Z,9.07
2023-05-20T19:14:54.053Z,9.32
2023-05-20T19:17:22.014Z,9.80
2023-05-20T19:19:49.900Z,9.27
2023-05-20T19:22:17.975Z,9.00
2023-05-20T19:24:45.798Z,9.38
2023-05-20T19:27:13.794Z,9.10
2023-05-20T19:29:43.099Z,9.85
2023-05-20T19:32:10.862Z,8.68
2023-05-20T19:34:38.742Z,9.52
2023-05-20T19:37:06.915Z,9.15
2023-05-20T19:39:34.759Z,9.68
2023-05-20T19:42:02.729Z,10.13
2023-05-20T19:44:30.588Z,9.82
2023-05-20T19:46:59.981Z,9.70
2023-05-20T19:49:29.435Z,10.27
2023-05-20T19:51:57.725Z,9.88
2023-05-20T19:54:27.674Z,10.23
2023-05-20T19:56:55.552Z,9.88
2023-05-20T19:59:23.360Z,10.95
2023-05-20T20:01:51.348Z,10.13
2023-05-20T20:04:21.224Z,11.35
2023-05-20T20:06:49.152Z,10.18
2023-05-20T20:09:17.312Z,10.48
2023-05-20T20:11:45.188Z,10.90
2023-05-20T20:14:14.122Z,10.23
2023-05-20T20:16:48.703Z,9.75
2023-05-20T20:19:21.955Z,10.35
2023-05-20T20:21:52.911Z,10.77
2023-05-20T20:24:21.050Z,11.75
2023-05-20T20:26:48.859Z,11.60
2023-05-20T20:29:16.833Z,11.35
2023-05-20T20:31:44.673Z,11.82
2023-05-20T20:34:12.605Z,10.35
2023-05-20T20:36:40.652Z,10.93
2023-05-20T20:39:15.198Z,11.10
2023-05-20T20:41:45.069Z,12.07
2023-05-20T20:44:16.589Z,10.90
2023-05-20T20:46:44.666Z,11.20
2023-05-20T20:49:12.792Z,11.35
2023-05-20T20:51:41.603Z,14.85
2023-05-20T20:54:11.904Z,11.07
2023-05-20T20:56:39.828Z,12.60
2023-05-20T20:59:08.707Z,11.68
2023-05-20T21:01:37.684Z,12.43
2023-05-20T21:04:06.241Z,12.48
2023-05-20T21:06:34.062Z,12.30
2023-05-20T21:09:02.371Z,11.88
2023-05-20T21:11:31.683Z,11.90
2023-05-20T21:13:59.632Z,11.70
2023-05-20T21:16:28.618Z,11.57
2023-05-20T21:18:56.467Z,12.35
2023-05-20T21:21:24.282Z,12.43
2023-05-20T21:23:54.037Z,12.77
2023-05-20T21:26:22.248Z,11.60
2023-05-20T21:28:51.710Z,12.60
2023-05-20T21:31:19.924Z,12.52
2023-05-20T21:33:48.021Z,11.93
2023-05-20T21:36:15.874Z,11.90
2023-05-20T21:38:43.762Z,13.00
2023-05-20T21:41:11.494Z,12.73
2023-05-20T21:43:39.337Z,12.40
2023-05-20T21:46:08.660Z,12.10
2023-05-20T21:48:36.426Z,11.32
2023-05-20T21:51:04.487Z,11.45
2023-05-20T21:53:32.278Z,12.75
2023-05-20T21:56:00.066Z,12.50
2023-05-20T21:58:28.879Z,12.10
2023-05-20T22:00:56.700Z,13.48
2023-05-20T22:03:25.983Z,12.93
2023-05-20T22:05:53.826Z,12.02
2023-05-20T22:08:21.619Z,12.68
2023-05-20T22:10:49.386Z,11.82
2023-05-20T22:13:17.274Z,13.05
2023-05-20T22:15:45.096Z,12.68
2023-05-20T22:18:14.576Z,11.65
2023-05-20T22:20:43.750Z,12.75
2023-05-20T22:23:11.612Z,12.43
2023-05-20T22:25:39.387Z,11.50
2023-05-20T22:28:07.182Z,13.27
2023-05-20T22:30:35.540Z,12.88
2023-05-20T22:33:03.352Z,14.02
2023-05-20T22:35:31.223Z,12.35
2023-05-20T22:38:00.491Z,12.88
2023-05-20T22:40:28.342Z,12.60
2023-05-20T22:42:56.130Z,12.77
2023-05-20T22:45:23.886Z,12.02
2023-05-20T22:47:52.055Z,12.85
2023-05-20T22:50:19.950Z,12.25
2023-05-20T22:52:47.971Z,12.77
2023-05-20T22:55:17.730Z,13.68
2023-05-20T22:57:45.504Z,12.65
2023-05-20T23:00:15.482Z,11.82
2023-05-20T23:02:45.512Z,12.63
2023-05-20T23:05:13.390Z,12.35
2023-05-20T23:07:41.190Z,12.80
2023-05-20T23:10:09.508Z,11.85
2023-05-20T23:12:38.653Z,13.27
2023-05-20T23:15:07.416Z,12.48
2023-05-20T23:17:35.289Z,12.35
2023-05-20T23:20:05.362Z,12.70
2023-05-20T23:22:33.106Z,12.05
2023-05-20T23:25:02.252Z,12.50
2023-05-20T23:27:29.994Z,12.55
2023-05-20T23:29:59.277Z,11.27
2023-05-20T23:32:27.388Z,12.70
2023-05-20T23:34:55.457Z,12.68
2023-05-20T23:37:23.496Z,14.02
2023-05-20T23:39:51.369Z,12.20
2023-05-20T23:42:19.150Z,13.18
2023-05-20T23:44:47.062Z,13.65
2023-05-20T23:47:18.541Z,13.25
2023-05-20T23:49:49.268Z,12.68
2023-05-20T23:52:17.345Z,12.75
2023-05-20T23:54:45.107Z,13.63
2023-05-20T23:57:12.930Z,12.98
2023-05-20T23:59:40.998Z,13.45
